Time;durP1;ratioP1;P1;durP2;ratioP2;P2;SDS_P1;SDS_P2;PMS_P1;PMS_P2;Temp;Humidity;BMP_temperature;BMP_pressure;BME280_temperature;BME280_humidity;BME280_pressure;Samples;Min_cycle;Max_cycle;Signal;HPM_P1;HPM_P2
2022/12/31 00:02:12;;;;;;;2.03;0.88;;;;;;;13.74;100.00;100306.78;5209560;28;20501;-80
2022/12/31 00:04:43;;;;;;;3.40;1.10;;;;;;;13.67;100.00;100305.94;5207936;28;20044;-81
2022/12/31 00:07:13;;;;;;;0.98;0.70;;;;;;;13.64;100.00;100315.22;5209319;28;20025;-80
2022/12/31 00:09:44;;;;;;;2.92;0.77;;;;;;;13.60;100.00;100310.44;5209626;28;20022;-80
2022/12/31 00:12:14;;;;;;;2.35;0.90;;;;;;;13.55;100.00;100300.25;5208444;28;20522;-81
2022/12/31 00:14:44;;;;;;;1.02;0.63;;;;;;;13.57;100.00;100297.38;5209466;28;20044;-81
2022/12/31 00:17:15;;;;;;;1.27;0.90;;;;;;;13.60;100.00;100295.09;5215644;28;20475;-81
2022/12/31 00:19:45;;;;;;;2.45;0.82;;;;;;;13.64;100.00;100290.97;5209499;28;20018;-81
2022/12/31 00:22:16;;;;;;;2.67;0.85;;;;;;;13.66;100.00;100280.00;5209817;28;20021;-82
2022/12/31 00:24:46;;;;;;;2.83;1.00;;;;;;;13.63;100.00;100281.22;5211671;28;20521;-81
2022/12/31 00:27:16;;;;;;;1.58;0.95;;;;;;;13.63;100.00;100270.44;5212697;28;20021;-81
2022/12/31 00:29:47;;;;;;;1.10;0.82;;;;;;;13.62;100.00;100267.97;5212405;28;20061;-81
2022/12/31 00:32:17;;;;;;;1.27;0.70;;;;;;;13.62;100.00;100268.78;5212514;28;20058;-80
2022/12/31 00:34:48;;;;;;;1.25;0.93;;;;;;;13.58;100.00;100264.81;5211152;28;20402;-80
2022/12/31 00:37:18;;;;;;;2.47;0.70;;;;;;;13.62;100.00;100259.88;5212382;28;20022;-80
2022/12/31 00:39:49;;;;;;;1.55;0.52;;;;;;;13.64;100.00;100265.88;5211741;28;20630;-80
2022/12/31 00:42:19;;;;;;;0.47;0.47;;;;;;;13.65;100.00;100244.09;5210939;28;20021;-80
2022/12/31 00:44:49;;;;;;;0.80;0.60;;;;;;;13.67;100.00;100250.16;5212156;28;20410;-80
2022/12/31 00:47:20;;;;;;;0.55;0.47;;;;;;;13.73;100.00;100260.13;5212295;28;20095;-80
2022/12/31 00:49:50;;;;;;;0.40;0.38;;;;;;;13.83;100.00;100240.03;5212048;28;20389;-80
2022/12/31 00:52:21;;;;;;;0.65;0.40;;;;;;;13.91;100.00;100234.50;5210750;28;20029;-81
2022/12/31 00:54:51;;;;;;;3.35;0.93;;;;;;;14.05;100.00;100236.16;5210523;28;20394;-80
2022/12/31 00:57:22;;;;;;;1.50;0.40;;;;;;;14.17;100.00;100248.03;5212140;28;20087;-81
2022/12/31 00:59:52;;;;;;;0.98;0.52;;;;;;;14.28;100.00;100243.06;5212627;28;20466;-80
2022/12/31 01:02:22;;;;;;;0.28;0.22;;;;;;;14.31;100.00;100239.94;5219438;28;20033;-81
2022/12/31 01:04:56;;;;;;;1.20;0.43;;;;;;;14.35;100.00;100243.91;5217716;28;20049;-80
2022/12/31 01:07:26;;;;;;;1.45;0.40;;;;;;;14.37;100.00;100249.94;5219953;28;20036;-81
2022/12/31 01:09:56;;;;;;;0.38;0.25;;;;;;;14.42;100.00;100233.97;5215904;28;20018;-81
2022/12/31 01:12:27;;;;;;;1.58;0.30;;;;;;;14.58;100.00;100246.25;5213466;28;20027;-81
2022/12/31 01:14:57;;;;;;;0.82;0.20;;;;;;;14.64;100.00;100253.50;5212834;28;20032;-81
2022/12/31 01:17:28;;;;;;;0.57;0.32;;;;;;;14.71;100.00;100267.88;5219219;28;20025;-81
2022/12/31 01:19:58;;;;;;;0.68;0.43;;;;;;;14.71;100.00;100313.75;5210882;28;20049;-81
2022/12/31 01:22:29;;;;;;;4.38;0.88;;;;;;;14.50;100.00;100353.34;5211658;28;20045;-82
2022/12/31 01:24:59;;;;;;;1.75;0.55;;;;;;;14.10;100.00;100378.50;5212974;28;20100;-82
2022/12/31 01:27:29;;;;;;;0.50;0.30;;;;;;;13.72;100.00;100360.06;5211169;28;20079;-81
2022/12/31 01:30:00;;;;;;;1.55;0.13;;;;;;;13.46;100.00;100353.47;5211580;28;20079;-81
2022/12/31 01:32:30;;;;;;;0.50;0.13;;;;;;;13.20;100.00;100366.69;5211969;28;20028;-82
2022/12/31 01:35:01;;;;;;;0.10;0.10;;;;;;;13.02;100.00;100369.06;5212263;28;20084;-81
2022/12/31 01:37:31;;;;;;;0.73;0.10;;;;;;;12.89;100.00;100365.19;5211233;28;20595;-81
2022/12/31 01:40:02;;;;;;;0.30;0.20;;;;;;;12.83;100.00;100371.38;5210925;28;20053;-81
2022/12/31 01:42:32;;;;;;;0.70;0.10;;;;;;;12.76;100.00;100366.97;5210377;28;20022;-81
2022/12/31 01:45:09;;;;;;;1.10;0.20;;;;;;;12.70;100.00;100372.09;5209692;28;20045;-81
2022/12/31 01:47:47;;;;;;;0.35;0.10;;;;;;;12.69;100.00;100383.00;5205124;28;20037;-81
2022/12/31 01:50:28;;;;;;;3.15;0.20;;;;;;;12.64;100.00;100396.22;5204713;28;20026;-81
2022/12/31 01:53:03;;;;;;;0.73;0.10;;;;;;;12.62;100.00;100391.03;5204613;28;20068;-82
2022/12/31 01:55:36;;;;;;;0.35;0.10;;;;;;;12.65;100.00;100397.88;5206429;28;20034;-82
2022/12/31 01:58:21;;;;;;;1.05;0.20;;;;;;;12.62;100.00;100380.25;5209311;28;20033;-81
2022/12/31 02:00:52;;;;;;;0.90;0.10;;;;;;;12.63;100.00;100389.16;5215164;28;20021;-81
2022/12/31 02:03:26;;;;;;;0.32;0.10;;;;;;;12.62;100.00;100398.28;5214772;28;20025;-81
2022/12/31 02:06:21;;;;;;;0.28;0.17;;;;;;;12.60;100.00;100376.94;5215308;28;20021;-80
2022/12/31 02:08:52;;;;;;;0.55;0.10;;;;;;;12.59;100.00;100393.25;5202693;28;20334;-81
2022/12/31 02:11:34;;;;;;;0.50;0.10;;;;;;;12.52;100.00;100390.50;5209951;28;20222;-82
2022/12/31 02:14:13;;;;;;;0.28;0.10;;;;;;;12.50;100.00;100397.94;5210879;28;20021;-83
2022/12/31 02:16:44;;;;;;;;;;;;;;;12.47;100.00;100392.94;5218733;28;20123;-81
2022/12/31 02:19:37;;;;;;;0.10;0.10;;;;;;;12.55;100.00;100384.75;5212174;28;19952;-81
2022/12/31 02:22:55;;;;;;;1.95;0.20;;;;;;;12.56;100.00;100388.28;5196922;28;20037;-81
2022/12/31 02:25:45;;;;;;;0.73;0.20;;;;;;;12.54;100.00;100384.91;5209993;28;20071;-80
2022/12/31 02:28:54;;;;;;;2.13;0.20;;;;;;;12.50;100.00;100387.19;5211117;28;20041;-80
2022/12/31 02:32:13;;;;;;;2.00;0.20;;;;;;;12.51;100.00;100382.63;5209569;28;20021;-81
2022/12/31 02:34:57;;;;;;;2.90;0.30;;;;;;;12.65;100.00;100381.72;5210943;28;20044;-81
2022/12/31 02:37:30;;;;;;;0.70;0.47;;;;;;;12.73;100.00;100380.78;5210395;28;20041;-81
2022/12/31 02:40:01;;;;;;;0.70;0.50;;;;;;;13.08;100.00;100369.09;5210516;28;20022;-81
2022/12/31 02:42:32;;;;;;;0.85;0.40;;;;;;;13.23;100.00;100373.59;5210699;28;20093;-81
2022/12/31 02:45:02;;;;;;;2.58;0.47;;;;;;;13.46;100.00;100363.44;5209011;28;20122;-81
2022/12/31 02:47:56;;;;;;;5.22;0.60;;;;;;;13.69;100.00;100372.06;5210811;28;20021;-81
2022/12/31 02:50:54;;;;;;;1.35;0.40;;;;;;;13.84;100.00;100352.25;5208880;28;20382;-81
2022/12/31 02:53:56;;;;;;;3.90;0.40;;;;;;;13.86;100.00;100367.22;5209914;28;20411;-81
2022/12/31 02:57:22;;;;;;;2.28;0.75;;;;;;;14.03;100.00;100359.59;5211389;28;20068;-81
2022/12/31 03:02:50;;;;;;;5.65;0.80;;;;;;;14.07;100.00;100342.00;5210240;28;20026;-81
2022/12/31 03:05:25;;;;;;;4.68;0.70;;;;;;;14.11;100.00;100347.81;5210450;28;20017;-80
2022/12/31 03:07:56;;;;;;;3.92;0.55;;;;;;;14.25;100.00;100328.75;5210207;28;20061;-80
2022/12/31 03:10:26;;;;;;;2.60;0.52;;;;;;;14.32;100.00;100353.09;5210568;28;20014;-80
2022/12/31 03:12:57;;;;;;;4.07;0.90;;;;;;;14.35;100.00;100346.44;5210055;28;20017;-81
2022/12/31 03:15:31;;;;;;;8.02;1.63;;;;;;;14.28;100.00;100327.53;5209389;28;20082;-82
2022/12/31 03:18:08;;;;;;;8.20;0.90;;;;;;;14.31;100.00;100337.06;5218117;28;20021;-80
2022/12/31 03:23:40;;;;;;;2.00;0.47;;;;;;;14.40;100.00;100335.84;5209859;28;20495;-80
2022/12/31 03:26:11;;;;;;;1.90;0.50;;;;;;;14.42;100.00;100315.75;5209047;28;20060;-80
2022/12/31 03:28:46;;;;;;;3.17;0.93;;;;;;;14.59;100.00;100331.59;5210643;28;20025;-80
2022/12/31 03:31:16;;;;;;;6.35;0.57;;;;;;;14.61;100.00;100343.84;5210038;28;20040;-80
2022/12/31 03:33:47;;;;;;;2.97;0.60;;;;;;;14.69;100.00;100322.03;5209645;28;20057;-81
2022/12/31 03:36:17;;;;;;;5.75;0.55;;;;;;;14.74;100.00;100326.81;5209185;28;20041;-80
2022/12/31 03:38:48;;;;;;;1.85;0.50;;;;;;;14.77;100.00;100327.25;5208825;28;20030;-80
2022/12/31 03:41:18;;;;;;;1.48;0.47;;;;;;;14.75;100.00;100307.72;5209462;28;20461;-81
2022/12/31 03:43:49;;;;;;;2.50;0.57;;;;;;;14.95;100.00;100296.09;5208281;28;20116;-81
2022/12/31 03:46:19;;;;;;;2.78;0.30;;;;;;;14.99;100.00;100308.97;5208780;28;20021;-81
2022/12/31 03:48:50;;;;;;;2.10;0.43;;;;;;;15.00;100.00;100328.72;5210153;28;20392;-80
2022/12/31 03:51:20;;;;;;;3.83;0.60;;;;;;;15.00;100.00;100326.84;5210401;28;20030;-80
2022/12/31 03:53:50;;;;;;;3.13;0.60;;;;;;;15.02;100.00;100334.75;5209799;28;20099;-80
2022/12/31 03:56:21;;;;;;;4.22;0.70;;;;;;;15.04;100.00;100335.38;5207945;28;20036;-82
2022/12/31 03:58:51;;;;;;;2.47;0.80;;;;;;;15.06;100.00;100332.44;5209597;28;20029;-81
2022/12/31 04:01:23;;;;;;;2.38;0.70;;;;;;;15.02;100.00;100367.16;5208576;28;20048;-81
2022/12/31 04:03:53;;;;;;;4.57;0.75;;;;;;;15.01;100.00;100346.59;5209905;28;20673;-81
2022/12/31 04:06:23;;;;;;;4.63;0.88;;;;;;;15.09;100.00;100323.94;5208823;28;20059;-81
2022/12/31 04:08:54;;;;;;;2.58;0.60;;;;;;;15.10;100.00;100321.00;5209473;28;20029;-81
2022/12/31 04:11:24;;;;;;;4.18;0.63;;;;;;;15.25;100.00;100343.25;5208997;28;20021;-81
2022/12/31 04:13:55;;;;;;;3.95;0.82;;;;;;;15.33;100.00;100341.38;5209267;28;20115;-81
2022/12/31 04:16:25;;;;;;;4.15;0.68;;;;;;;15.33;100.00;100371.94;5215155;28;20112;-81
2022/12/31 04:18:55;;;;;;;4.30;0.43;;;;;;;15.29;100.00;100363.41;5209892;28;20029;-81
2022/12/31 04:21:26;;;;;;;7.05;0.90;;;;;;;15.30;100.00;100356.13;5209491;28;20409;-81
2022/12/31 04:23:56;;;;;;;5.72;0.63;;;;;;;15.32;100.00;100348.66;5209745;28;20451;-81
2022/12/31 04:26:27;;;;;;;2.47;0.82;;;;;;;15.38;100.00;100358.63;5208897;28;20033;-81
2022/12/31 04:28:57;;;;;;;3.30;0.50;;;;;;;15.49;100.00;100349.06;5209509;28;20378;-81
2022/12/31 04:31:28;;;;;;;5.78;0.80;;;;;;;15.45;100.00;100353.22;5208089;28;20037;-80
2022/12/31 04:33:58;;;;;;;3.00;0.60;;;;;;;15.47;100.00;100348.44;5209720;28;20032;-81
2022/12/31 04:36:29;;;;;;;2.35;0.73;;;;;;;15.68;100.00;100341.97;5209741;28;20060;-81
2022/12/31 04:38:59;;;;;;;4.50;0.40;;;;;;;15.73;100.00;100344.88;5208486;28;20080;-81
2022/12/31 04:41:30;;;;;;;2.22;0.40;;;;;;;15.70;100.00;100369.63;5209284;28;20056;-81
2022/12/31 04:44:00;;;;;;;3.45;0.40;;;;;;;15.61;100.00;100393.31;5207986;28;20018;-81
2022/12/31 04:46:32;;;;;;;4.40;0.57;;;;;;;15.58;100.00;100382.94;5208737;28;20092;-80
2022/12/31 04:49:03;;;;;;;4.45;0.40;;;;;;;15.52;100.00;100394.59;5208014;28;20386;-81
2022/12/31 04:51:34;;;;;;;4.55;0.60;;;;;;;15.50;100.00;100364.22;5209191;28;20040;-81
2022/12/31 04:54:04;;;;;;;1.67;0.40;;;;;;;15.43;100.00;100371.53;5209271;28;20029;-81
2022/12/31 04:56:35;;;;;;;6.53;0.50;;;;;;;15.34;100.00;100372.78;5207997;28;20033;-80
2022/12/31 04:59:06;;;;;;;5.43;0.60;;;;;;;15.32;100.00;100401.88;5209715;28;20033;-80
2022/12/31 05:01:38;;;;;;;2.10;0.70;;;;;;;15.37;100.00;100375.06;5208945;28;20525;-80
2022/12/31 05:04:08;;;;;;;4.00;0.55;;;;;;;15.35;100.00;100380.66;5208455;28;20041;-80
2022/12/31 05:06:39;;;;;;;5.32;0.57;;;;;;;15.42;100.00;100380.69;5207235;28;20021;-80
2022/12/31 05:09:09;;;;;;;3.95;0.50;;;;;;;15.53;100.00;100382.75;5213047;28;20017;-80
2022/12/31 05:11:39;;;;;;;7.95;1.23;;;;;;;15.61;100.00;100404.13;5210496;28;20087;-80
2022/12/31 05:14:10;;;;;;;2.97;0.73;;;;;;;15.74;100.00;100396.03;5208507;28;20112;-81
2022/12/31 05:16:40;;;;;;;1.60;0.55;;;;;;;15.99;100.00;100398.06;5216001;28;20025;-80
2022/12/31 05:19:11;;;;;;;6.50;0.75;;;;;;;15.95;100.00;100397.66;5208873;28;20313;-80
2022/12/31 05:21:41;;;;;;;1.77;0.40;;;;;;;15.93;100.00;100377.28;5209238;28;20044;-80
2022/12/31 05:24:11;;;;;;;4.28;0.57;;;;;;;15.89;100.00;100376.03;5208343;28;20455;-82
2022/12/31 05:26:42;;;;;;;2.50;0.57;;;;;;;15.93;100.00;100382.69;5209102;28;20033;-81
2022/12/31 05:29:12;;;;;;;1.77;0.30;;;;;;;15.93;100.00;100390.81;5208217;28;20376;-80
2022/12/31 05:31:43;;;;;;;4.57;0.65;;;;;;;16.03;100.00;100383.91;5208821;28;20514;-80
2022/12/31 05:34:13;;;;;;;5.35;0.68;;;;;;;16.04;100.00;100428.84;5208891;28;20209;-83
2022/12/31 05:36:43;;;;;;;2.15;0.45;;;;;;;16.15;100.00;100384.06;5210657;28;20406;-81
2022/12/31 05:39:14;;;;;;;1.00;0.38;;;;;;;16.20;100.00;100410.47;5210105;28;20033;-80
2022/12/31 05:41:44;;;;;;;2.67;0.80;;;;;;;16.17;100.00;100421.75;5196553;28;20029;-81
2022/12/31 05:44:15;;;;;;;1.83;0.52;;;;;;;16.12;100.00;100427.81;5209545;28;20056;-81
2022/12/31 05:46:48;;;;;;;2.53;0.70;;;;;;;16.11;100.00;100418.00;5208999;28;20029;-81
2022/12/31 05:49:18;;;;;;;4.82;0.90;;;;;;;16.08;100.00;100421.16;5209884;28;20022;-81
2022/12/31 05:51:49;;;;;;;4.38;1.00;;;;;;;16.04;100.00;100419.91;5208581;28;20494;-78
2022/12/31 05:54:19;;;;;;;2.17;0.70;;;;;;;16.01;100.00;100426.59;5208575;28;20029;-78
2022/12/31 05:56:50;;;;;;;2.75;0.63;;;;;;;16.23;100.00;100396.53;5209529;28;20052;-79
2022/12/31 05:59:21;;;;;;;4.03;0.55;;;;;;;16.20;100.00;100432.97;5208433;28;20049;-81
2022/12/31 06:01:51;;;;;;;4.65;0.50;;;;;;;16.15;100.00;100424.66;5208482;28;20025;-80
2022/12/31 06:04:22;;;;;;;2.30;0.60;;;;;;;16.11;100.00;100433.41;5208295;28;20483;-80
2022/12/31 06:06:52;;;;;;;4.40;0.90;;;;;;;16.21;100.00;100431.91;5207506;28;20501;-79
2022/12/31 06:09:23;;;;;;;2.47;0.50;;;;;;;16.25;100.00;100446.69;5208031;28;20470;-80
2022/12/31 06:11:53;;;;;;;5.80;1.02;;;;;;;16.27;100.00;100444.63;5207945;28;20405;-80
2022/12/31 06:14:24;;;;;;;2.65;0.70;;;;;;;16.18;100.00;100456.72;5207858;28;20159;-80
2022/12/31 06:16:54;;;;;;;7.35;0.85;;;;;;;16.28;100.00;100440.84;5215472;28;20053;-81
2022/12/31 06:19:25;;;;;;;3.10;0.82;;;;;;;16.29;100.00;100426.28;5208609;28;20102;-80
2022/12/31 06:21:55;;;;;;;4.18;0.70;;;;;;;16.35;100.00;100446.25;5207211;28;20026;-80
2022/12/31 06:24:26;;;;;;;6.07;0.80;;;;;;;16.36;100.00;100449.78;5205822;28;20452;-80
2022/12/31 06:26:56;;;;;;;3.35;0.88;;;;;;;16.28;100.00;100438.16;5205208;28;20426;-80
2022/12/31 06:29:29;;;;;;;7.53;1.02;;;;;;;16.29;100.00;100455.22;5199625;28;20041;-80
2022/12/31 06:31:59;;;;;;;4.55;0.82;;;;;;;16.04;100.00;100450.50;5198600;28;20065;-80
2022/12/31 06:34:30;;;;;;;7.22;1.10;;;;;;;15.88;100.00;100461.78;5205017;28;20033;-80
2022/12/31 06:37:00;;;;;;;4.90;0.80;;;;;;;15.85;100.00;100458.66;5205078;28;20099;-80
2022/12/31 06:39:30;;;;;;;4.70;0.70;;;;;;;15.90;100.00;100483.19;5205198;28;20113;-81
2022/12/31 06:42:01;;;;;;;3.38;0.70;;;;;;;15.94;100.00;100471.75;5205011;28;20088;-80
2022/12/31 06:44:31;;;;;;;3.13;0.85;;;;;;;15.93;100.00;100469.25;5203871;28;20029;-81
2022/12/31 06:47:02;;;;;;;4.35;0.80;;;;;;;15.93;100.00;100471.97;5205799;28;20037;-80
2022/12/31 06:49:32;;;;;;;4.50;0.93;;;;;;;15.92;100.00;100464.91;5204501;28;20044;-80
2022/12/31 06:52:03;;;;;;;4.50;0.80;;;;;;;15.96;100.00;100472.34;5204556;28;20394;-80
2022/12/31 06:54:34;;;;;;;5.35;0.82;;;;;;;16.04;100.00;100476.72;5205131;28;20497;-80
2022/12/31 06:57:04;;;;;;;4.15;0.77;;;;;;;16.03;100.00;100481.31;5206394;28;20018;-80
2022/12/31 06:59:36;;;;;;;6.70;0.85;;;;;;;15.84;100.00;100479.47;5205694;28;20442;-80
2022/12/31 07:02:07;;;;;;;5.82;1.00;;;;;;;15.60;100.00;100494.41;5204592;28;20025;-80
2022/12/31 07:05:19;;;;;;;3.70;0.90;;;;;;;15.45;100.00;100518.09;5206009;28;20382;-80
2022/12/31 07:08:15;;;;;;;3.40;1.10;;;;;;;15.23;100.00;100495.84;5204263;28;20025;-81
2022/12/31 07:10:55;;;;;;;2.33;0.83;;;;;;;15.14;100.00;100491.66;5205557;28;20028;-80
2022/12/31 07:13:32;;;;;;;5.93;1.20;;;;;;;15.11;100.00;100497.44;5205697;28;20065;-81
2022/12/31 07:16:44;;;;;;;1.70;0.90;;;;;;;15.32;100.00;100501.88;5208042;28;20029;-80
2022/12/31 07:19:35;;;;;;;5.63;0.75;;;;;;;15.41;100.00;100506.03;5193626;28;20024;-81
2022/12/31 07:22:13;;;;;;;3.67;1.17;;;;;;;15.38;100.00;100507.28;5205671;28;20063;-80
2022/12/31 07:24:44;;;;;;;6.60;1.10;;;;;;;15.28;100.00;100499.59;5204918;28;20026;-80
2022/12/31 07:27:23;;;;;;;2.72;0.90;;;;;;;15.22;100.00;100503.13;5206287;28;20041;-81
2022/12/31 07:30:18;;;;;;;1.27;0.80;;;;;;;15.20;100.00;100497.06;5205501;28;20029;-81
2022/12/31 07:33:20;;;;;;;6.28;0.93;;;;;;;15.23;100.00;100493.13;5205323;28;20109;-84
2022/12/31 07:35:56;;;;;;;1.85;0.80;;;;;;;15.33;100.00;100519.75;5206709;28;20022;-81
2022/12/31 07:38:44;;;;;;;3.80;1.17;;;;;;;15.35;100.00;100509.56;5205314;28;20030;-81
2022/12/31 07:41:33;;;;;;;6.85;0.60;;;;;;;15.34;100.00;100505.19;5203546;28;20037;-82
2022/12/31 07:44:25;;;;;;;2.35;1.00;;;;;;;15.32;100.00;100512.69;5204902;28;20036;-81
2022/12/31 07:46:59;;;;;;;5.82;1.45;;;;;;;15.31;100.00;100540.72;5204706;28;20067;-81
2022/12/31 07:49:31;;;;;;;4.32;1.55;;;;;;;15.28;100.00;100542.00;5204572;28;20493;-80
2022/12/31 07:52:02;;;;;;;5.78;0.93;;;;;;;15.28;100.00;100547.41;5206432;28;20022;-83
2022/12/31 07:54:33;;;;;;;5.88;0.90;;;;;;;15.25;100.00;100553.19;5205701;28;20100;-79
2022/12/31 07:57:03;;;;;;;6.43;1.10;;;;;;;15.28;100.00;100537.41;5205850;28;20692;-81
2022/12/31 07:59:46;;;;;;;4.85;0.60;;;;;;;15.27;100.00;100549.28;5204985;28;20030;-82
2022/12/31 08:02:28;;;;;;;2.78;0.98;;;;;;;15.15;100.00;100550.06;5204866;28;20490;-82
2022/12/31 08:05:17;;;;;;;4.05;0.82;;;;;;;15.09;100.00;100567.91;5206468;28;20116;-79
2022/12/31 08:08:25;;;;;;;1.63;0.63;;;;;;;15.25;100.00;100555.91;5205926;28;20067;-87
2022/12/31 08:11:01;;;;;;;7.45;2.75;;;;;;;15.27;100.00;100548.44;5205875;28;20068;-82
2022/12/31 08:13:31;;;;;;;3.55;0.63;;;;;;;15.31;100.00;100559.66;5204752;28;20033;-82
2022/12/31 08:16:02;;;;;;;3.63;0.77;;;;;;;15.30;100.00;100572.34;5209548;28;20023;-82
2022/12/31 08:18:33;;;;;;;4.18;1.10;;;;;;;15.29;100.00;100581.47;5210451;28;20342;-82
2022/12/31 08:21:38;;;;;;;6.03;1.00;;;;;;;15.32;100.00;100578.38;5205647;28;20018;-82
2022/12/31 08:24:21;;;;;;;6.88;1.30;;;;;;;15.36;100.00;100586.91;5206733;28;20049;-82
2022/12/31 08:27:25;;;;;;;7.60;1.35;;;;;;;15.41;100.00;100593.38;5207576;28;20063;-82
2022/12/31 08:30:10;;;;;;;4.22;1.00;;;;;;;15.52;100.00;100591.94;5208466;28;20098;-82
2022/12/31 08:33:22;;;;;;;6.85;1.20;;;;;;;15.60;100.00;100594.44;5208081;28;20033;-82
2022/12/31 08:36:19;;;;;;;6.30;1.00;;;;;;;15.68;100.00;100605.13;5189447;28;20080;-82
2022/12/31 08:38:56;;;;;;;4.97;1.92;;;;;;;15.76;100.00;100612.19;5209505;28;20033;-82
2022/12/31 08:41:30;;;;;;;4.63;0.70;;;;;;;15.77;100.00;100613.88;5207436;28;20394;-82
2022/12/31 08:44:21;;;;;;;3.90;1.02;;;;;;;15.87;100.00;100614.31;5211880;28;20379;-82
2022/12/31 08:47:01;;;;;;;5.20;1.00;;;;;;;15.90;100.00;100613.03;5211618;28;20026;-82
2022/12/31 08:49:34;;;;;;;8.10;1.00;;;;;;;15.89;100.00;100603.25;5211423;28;20024;-82
2022/12/31 08:52:24;;;;;;;2.92;0.75;;;;;;;16.02;100.00;100611.41;5212513;28;20033;-81
2022/12/31 08:54:55;;;;;;;4.45;0.90;;;;;;;16.09;100.00;100614.94;5211722;28;20085;-82
2022/12/31 08:57:50;;;;;;;1.45;0.60;;;;;;;16.09;100.00;100606.81;5211944;28;20033;-82
2022/12/31 09:00:21;;;;;;;4.20;1.00;;;;;;;16.10;100.00;100640.94;5212846;28;20036;-82
2022/12/31 09:03:10;;;;;;;6.22;0.90;;;;;;;16.12;100.00;100641.59;5213063;28;20033;-82
2022/12/31 09:06:05;;;;;;;5.53;2.92;;;;;;;16.11;100.00;100650.72;5212793;28;20551;-81
2022/12/31 09:09:06;;;;;;;7.03;1.10;;;;;;;16.15;100.00;100654.69;5213130;28;20025;-82
2022/12/31 09:12:03;;;;;;;4.95;1.10;;;;;;;16.12;100.00;100668.66;5211777;28;20097;-81
2022/12/31 09:14:53;;;;;;;6.03;1.13;;;;;;;16.14;100.00;100674.66;5210106;28;20029;-82
2022/12/31 09:17:30;;;;;;;4.63;1.10;;;;;;;16.32;100.00;100671.38;5211124;28;20056;-82
2022/12/31 09:20:01;;;;;;;4.13;1.23;;;;;;;16.33;100.00;100678.44;5208612;28;20088;-82
2022/12/31 09:22:31;;;;;;;9.10;1.55;;;;;;;16.36;100.00;100664.47;5207482;28;20080;-82
2022/12/31 09:25:02;;;;;;;8.85;1.50;;;;;;;16.33;100.00;100666.78;5208581;28;20033;-82
2022/12/31 09:27:41;;;;;;;7.72;1.27;;;;;;;16.35;100.00;100662.81;5204101;28;20033;-82
2022/12/31 09:30:15;;;;;;;4.55;1.45;;;;;;;16.36;100.00;100667.19;5206124;28;20565;-81
2022/12/31 09:33:20;;;;;;;3.83;1.15;;;;;;;16.40;100.00;100673.84;5207859;28;20390;-81
2022/12/31 09:35:57;;;;;;;4.55;1.20;;;;;;;16.30;100.00;100690.50;5209258;28;20032;-82
2022/12/31 09:38:33;;;;;;;7.93;1.40;;;;;;;16.33;100.00;100683.84;5207721;28;20490;-82
2022/12/31 09:41:54;;;;;;;4.70;1.60;;;;;;;16.28;100.00;100697.19;5207134;28;20071;-81
2022/12/31 09:44:43;;;;;;;6.97;1.30;;;;;;;16.29;100.00;100696.97;5175191;28;20079;-81
2022/12/31 09:47:20;;;;;;;9.30;1.30;;;;;;;16.29;100.00;100696.97;5205929;28;20270;-81
2022/12/31 09:50:03;;;;;;;8.60;1.52;;;;;;;16.28;100.00;100700.72;5205882;28;20025;-81
2022/12/31 09:52:55;;;;;;;8.13;2.13;;;;;;;16.28;100.00;100708.84;5202563;28;20072;-80
2022/12/31 09:55:47;;;;;;;6.93;1.40;;;;;;;16.32;100.00;100706.56;5206721;28;20029;-81
2022/12/31 09:58:37;;;;;;;14.45;7.03;;;;;;;16.34;100.00;100699.03;5204812;28;20026;-81
2022/12/31 10:01:11;;;;;;;7.60;1.20;;;;;;;16.22;100.00;100736.72;5206680;28;20501;-80
2022/12/31 10:04:17;;;;;;;3.08;1.05;;;;;;;16.15;100.00;100716.94;5202722;28;20025;-81
2022/12/31 10:07:13;;;;;;;;;;;;;;;16.09;100.00;100717.75;5175716;28;20039;-80
2022/12/31 10:09:55;;;;;;;3.38;1.50;;;;;;;16.07;100.00;100710.91;5207450;28;19909;-80
2022/12/31 10:12:42;;;;;;;7.65;2.00;;;;;;;16.01;100.00;100712.53;5207716;28;20045;-82
2022/12/31 10:15:43;;;;;;;7.43;1.40;;;;;;;16.00;100.00;100708.16;5204979;28;20034;-82
2022/12/31 10:18:46;;;;;;;8.80;1.52;;;;;;;16.04;100.00;100706.72;5205011;28;20482;-82
2022/12/31 10:21:36;;;;;;;8.38;1.63;;;;;;;16.05;100.00;100709.22;5189934;28;20518;-81
2022/12/31 10:24:35;;;;;;;8.80;2.13;;;;;;;16.08;100.00;100745.03;5206360;28;20033;-81
2022/12/31 10:27:17;;;;;;;7.30;1.98;;;;;;;16.11;100.00;100723.78;5202869;28;20033;-81
2022/12/31 10:29:57;;;;;;;10.35;1.23;;;;;;;16.21;100.00;100735.03;5199732;28;20026;-82
2022/12/31 10:32:27;;;;;;;10.60;1.80;;;;;;;16.28;100.00;100732.38;5207631;28;20633;-82
2022/12/31 10:35:27;;;;;;;4.95;1.25;;;;;;;16.35;100.00;100733.19;5200132;28;20478;-84
2022/12/31 10:38:56;;;;;;;6.45;1.45;;;;;;;16.35;100.00;100730.50;5205545;28;20047;-83
2022/12/31 10:42:07;;;;;;;11.63;1.75;;;;;;;16.43;100.00;100724.06;5127794;28;20166;-81
2022/12/31 10:45:14;;;;;;;6.97;1.98;;;;;;;16.44;100.00;100717.59;5109307;28;20118;-81
2022/12/31 10:48:00;;;;;;;6.68;1.70;;;;;;;16.47;100.00;100730.72;5204745;28;20041;-81
2022/12/31 10:50:33;;;;;;;;;;;;;;;16.46;100.00;100729.88;5204680;28;20025;-80
2022/12/31 10:53:43;;;;;;;5.00;1.27;;;;;;;16.44;100.00;100744.66;5205876;28;19913;-84
2022/12/31 10:56:42;;;;;;;8.10;1.50;;;;;;;16.44;100.00;100731.97;5205962;28;20042;-84
2022/12/31 10:59:34;;;;;;;4.72;1.30;;;;;;;16.42;100.00;100744.88;5201115;28;20120;-85
2022/12/31 11:02:26;;;;;;;5.50;1.30;;;;;;;16.35;100.00;100744.03;5198836;28;20457;-83
2022/12/31 11:05:24;;;;;;;11.15;1.75;;;;;;;16.26;100.00;100740.66;5207698;28;20052;-82
2022/12/31 11:08:32;;;;;;;4.00;1.20;;;;;;;16.30;100.00;100757.34;5207817;28;20037;-82
2022/12/31 11:11:11;;;;;;;11.88;2.42;;;;;;;16.31;100.00;100753.59;5206007;28;20034;-82
2022/12/31 11:13:58;;;;;;;3.92;1.20;;;;;;;16.37;100.00;100752.78;5204684;28;20045;-82
2022/12/31 11:16:50;;;;;;;3.95;1.50;;;;;;;16.36;100.00;100740.25;5204756;28;20075;-82
2022/12/31 11:19:29;;;;;;;6.25;1.67;;;;;;;16.34;100.00;100734.25;5206867;28;20116;-82
2022/12/31 11:22:21;;;;;;;6.95;1.52;;;;;;;16.41;100.00;100755.91;5202841;28;20021;-82
2022/12/31 11:24:57;;;;;;;11.32;1.48;;;;;;;16.38;100.00;100759.03;5195325;28;20546;-82
2022/12/31 11:27:56;;;;;;;5.35;1.60;;;;;;;16.34;100.00;100747.78;5195493;28;20030;-81
2022/12/31 11:30:32;;;;;;;7.18;2.00;;;;;;;16.28;100.00;100770.25;5197380;28;20245;-81
2022/12/31 11:33:13;;;;;;;9.75;1.40;;;;;;;16.21;100.00;100769.41;5198882;28;20622;-81
2022/12/31 11:35:54;;;;;;;6.32;1.58;;;;;;;16.08;100.00;100774.78;5200038;28;20021;-82
2022/12/31 11:38:30;;;;;;;4.25;1.73;;;;;;;16.04;100.00;100768.94;5200022;28;20363;-81
2022/12/31 11:41:07;;;;;;;13.40;1.77;;;;;;;16.03;100.00;100765.41;5199753;28;20033;-82
2022/12/31 11:44:23;;;;;;;6.88;1.58;;;;;;;15.95;100.00;100767.47;5200405;28;20032;-82
2022/12/31 11:47:21;;;;;;;9.70;1.87;;;;;;;15.92;100.00;100746.25;5198442;28;20111;-82
2022/12/31 11:50:14;;;;;;;9.52;2.08;;;;;;;15.91;100.00;100749.97;5200980;28;20021;-81
2022/12/31 11:52:50;;;;;;;7.57;1.75;;;;;;;15.96;100.00;100742.06;5200003;28;20029;-82
2022/12/31 11:55:58;;;;;;;9.25;1.60;;;;;;;16.03;100.00;100741.06;5199774;28;20025;-82
2022/12/31 11:58:29;;;;;;;5.28;1.50;;;;;;;16.07;100.00;100744.19;5219065;28;20052;-82
2022/12/31 12:01:35;;;;;;;9.00;1.98;;;;;;;16.10;100.00;100754.59;5203776;28;20229;-82
2022/12/31 12:04:05;;;;;;;5.82;1.60;;;;;;;16.10;100.00;100742.94;5199397;28;20411;-82
2022/12/31 12:06:36;;;;;;;7.65;1.83;;;;;;;16.18;100.00;100735.47;5201203;28;20128;-81
2022/12/31 12:09:15;;;;;;;10.05;1.90;;;;;;;16.23;100.00;100734.84;5201895;28;20021;-82
2022/12/31 12:11:57;;;;;;;7.82;1.92;;;;;;;16.26;100.00;100737.13;5201858;28;20499;-81
2022/12/31 12:14:37;;;;;;;4.93;1.63;;;;;;;16.31;100.00;100735.50;5202413;28;20498;-82
2022/12/31 12:17:33;;;;;;;8.25;2.40;;;;;;;16.37;100.00;100738.44;5198480;28;20018;-82